createdAt,value
2023-09-03T00:00:55.770Z,4.63
2023-09-03T00:03:25.953Z,4.65
2023-09-03T00:05:57.061Z,4.93
2023-09-03T00:08:24.728Z,5.75
2023-09-03T00:10:56.219Z,5.40
2023-09-03T00:13:24.197Z,3.22
2023-09-03T00:15:51.673Z,3.58
2023-09-03T00:18:19.752Z,3.25
2023-09-03T00:21:03.971Z,2.67
2023-09-03T00:23:32.314Z,3.53
2023-09-03T00:26:04.883Z,4.95
2023-09-03T00:28:34.323Z,3.53
2023-09-03T00:33:36.906Z,6.88
2023-09-03T00:36:05.991Z,6.32
2023-09-03T00:38:33.007Z,6.65
2023-09-03T00:41:01.888Z,5.68
2023-09-03T00:43:31.440Z,3.95
2023-09-03T00:46:00.435Z,3.42
2023-09-03T00:48:32.098Z,3.03
2023-09-03T00:51:03.363Z,5.43
2023-09-03T00:53:32.064Z,6.57
2023-09-03T00:55:59.219Z,6.10
2023-09-03T00:58:31.171Z,10.32
2023-09-03T01:00:59.989Z,10.43
2023-09-03T01:03:27.605Z,8.40
2023-09-03T01:05:54.453Z,6.45
2023-09-03T01:08:24.043Z,3.42
2023-09-03T01:11:15.873Z,5.15
2023-09-03T01:14:19.721Z,3.65
2023-09-03T01:16:55.928Z,4.15
2023-09-03T01:19:53.838Z,5.22
2023-09-03T01:22:38.574Z,3.05
2023-09-03T01:25:47.480Z,4.60
2023-09-03T01:28:43.223Z,7.35
2023-09-03T01:31:13.185Z,3.65
2023-09-03T01:33:43.437Z,3.72
2023-09-03T01:36:22.407Z,6.93
2023-09-03T01:38:50.299Z,4.60
2023-09-03T01:41:17.111Z,3.53
2023-09-03T01:43:47.156Z,6.45
2023-09-03T01:46:23.192Z,5.38
2023-09-03T01:49:11.129Z,8.18
2023-09-03T01:52:12.023Z,3.70
2023-09-03T01:54:47.019Z,3.63
2023-09-03T01:57:19.727Z,3.67
2023-09-03T01:59:50.341Z,4.82
2023-09-03T02:02:18.433Z,5.25
2023-09-03T02:04:46.446Z,9.23
2023-09-03T02:07:13.360Z,7.35
2023-09-03T02:09:41.847Z,5.63
2023-09-03T02:12:09.465Z,4.57
2023-09-03T02:14:36.747Z,7.70
2023-09-03T02:17:06.858Z,4.07
2023-09-03T02:19:36.186Z,4.25
2023-09-03T02:22:09.786Z,5.45
2023-09-03T02:24:36.455Z,5.70
2023-09-03T02:27:07.235Z,4.72
2023-09-03T02:29:36.373Z,6.38
2023-09-03T02:32:08.056Z,5.22
2023-09-03T02:34:38.487Z,5.10
2023-09-03T02:37:05.414Z,5.18
2023-09-03T02:39:33.491Z,6.35
2023-09-03T02:42:00.163Z,6.00
2023-09-03T02:44:27.160Z,6.53
2023-09-03T02:46:55.649Z,6.93
2023-09-03T02:49:23.567Z,8.95
2023-09-03T02:51:52.026Z,7.40
2023-09-03T02:54:21.207Z,5.60
2023-09-03T02:56:48.217Z,7.45
2023-09-03T02:59:15.531Z,7.53
2023-09-03T03:01:44.269Z,7.95
2023-09-03T03:04:11.455Z,8.45
2023-09-03T03:06:38.639Z,7.13
2023-09-03T03:09:10.464Z,6.25
2023-09-03T03:11:37.320Z,7.13
2023-09-03T03:14:04.178Z,7.22
2023-09-03T03:16:31.579Z,8.63
2023-09-03T03:18:59.699Z,8.30
2023-09-03T03:21:27.772Z,8.75
2023-09-03T03:23:55.507Z,9.93
2023-09-03T03:26:22.265Z,9.65
2023-09-03T03:28:49.334Z,8.15
2023-09-03T03:31:18.417Z,9.95
2023-09-03T03:33:47.465Z,9.15
2023-09-03T03:36:16.940Z,8.65
2023-09-03T03:38:47.919Z,9.20
2023-09-03T03:41:16.708Z,7.55
2023-09-03T03:43:45.110Z,7.70
2023-09-03T03:46:15.941Z,9.98
2023-09-03T03:48:43.616Z,9.27
2023-09-03T03:51:10.917Z,7.88
2023-09-03T03:53:39.069Z,8.90
2023-09-03T03:56:10.216Z,7.20
2023-09-03T03:58:39.145Z,12.63
2023-09-03T04:01:14.007Z,9.93
2023-09-03T04:03:41.565Z,11.05
2023-09-03T04:06:10.205Z,11.27
2023-09-03T04:08:38.859Z,15.25
2023-09-03T04:11:08.510Z,16.05
2023-09-03T04:13:37.475Z,18.80
2023-09-03T04:16:12.415Z,19.05
2023-09-03T04:18:39.377Z,16.38
2023-09-03T04:21:11.717Z,14.98
2023-09-03T04:23:39.378Z,9.03
2023-09-03T04:26:06.522Z,7.47
2023-09-03T04:28:33.730Z,10.27
2023-09-03T04:31:05.862Z,9.75
2023-09-03T04:33:32.734Z,9.77
2023-09-03T04:36:01.855Z,13.90
2023-09-03T04:38:28.749Z,13.07
2023-09-03T04:40:59.453Z,13.02
2023-09-03T04:43:28.789Z,15.30
2023-09-03T04:45:58.278Z,11.48
2023-09-03T04:48:26.957Z,11.93
2023-09-03T04:50:54.139Z,11.10
2023-09-03T04:53:21.564Z,8.57
2023-09-03T04:55:49.057Z,10.82
2023-09-03T04:58:15.726Z,8.55
2023-09-03T05:00:43.570Z,12.52
2023-09-03T05:03:10.272Z,11.10
2023-09-03T05:05:45.653Z,10.38
2023-09-03T05:08:12.848Z,8.32
2023-09-03T05:10:42.997Z,9.43
2023-09-03T05:13:10.653Z,9.52
2023-09-03T05:15:41.657Z,8.93
2023-09-03T05:18:10.749Z,10.70
2023-09-03T05:20:39.295Z,9.15
2023-09-03T05:23:06.276Z,13.88
2023-09-03T05:25:34.436Z,12.55
2023-09-03T05:28:03.459Z,8.98
2023-09-03T05:30:31.380Z,10.40
2023-09-03T05:32:58.521Z,9.57
2023-09-03T05:35:25.860Z,6.40
2023-09-03T05:37:52.468Z,6.55
2023-09-03T05:40:20.592Z,8.25
2023-09-03T05:42:49.199Z,5.20
2023-09-03T05:45:16.929Z,7.22
2023-09-03T05:47:44.795Z,4.50
2023-09-03T05:50:14.060Z,6.28
2023-09-03T05:52:48.510Z,5.75
2023-09-03T05:55:16.906Z,5.30
2023-09-03T05:57:43.545Z,5.07
2023-09-03T06:00:12.896Z,6.75
2023-09-03T06:02:39.878Z,4.75
2023-09-03T06:05:07.737Z,4.57
2023-09-03T06:07:38.053Z,4.47
2023-09-03T06:10:06.420Z,4.05
2023-09-03T06:12:33.629Z,6.13
2023-09-03T06:15:00.737Z,7.38
2023-09-03T06:17:28.597Z,5.05
2023-09-03T06:19:55.338Z,9.45
2023-09-03T06:22:22.116Z,7.80
2023-09-03T06:24:49.160Z,5.55
2023-09-03T06:27:17.520Z,8.23
2023-09-03T06:29:44.236Z,8.93
2023-09-03T06:32:11.641Z,10.05
2023-09-03T06:34:39.350Z,11.15
2023-09-03T06:37:06.891Z,16.13
2023-09-03T06:39:34.026Z,13.27
2023-09-03T06:42:05.103Z,10.50
2023-09-03T06:44:31.934Z,10.63
2023-09-03T06:47:00.155Z,11.63
2023-09-03T06:49:27.895Z,11.60
2023-09-03T06:51:54.527Z,14.00
2023-09-03T06:54:23.922Z,13.90
2023-09-03T06:56:50.882Z,17.05
2023-09-03T06:59:33.503Z,12.65
2023-09-03T07:02:01.596Z,12.05
2023-09-03T07:04:28.665Z,11.45
2023-09-03T07:06:55.463Z,13.27
2023-09-03T07:09:22.207Z,13.40
2023-09-03T07:11:52.594Z,11.13
2023-09-03T07:14:20.649Z,14.73
2023-09-03T07:16:47.354Z,13.23
2023-09-03T07:19:13.968Z,11.05
2023-09-03T07:21:40.797Z,11.38
2023-09-03T07:24:07.644Z,10.90
2023-09-03T07:26:34.350Z,11.52
2023-09-03T07:29:12.177Z,12.50
2023-09-03T07:31:42.107Z,17.00
2023-09-03T07:34:15.444Z,11.25
2023-09-03T07:36:43.896Z,11.80
2023-09-03T07:39:11.320Z,11.15
2023-09-03T07:41:39.004Z,11.38
2023-09-03T07:44:06.893Z,10.00
2023-09-03T07:46:38.860Z,9.95
2023-09-03T07:49:12.432Z,15.45
2023-09-03T07:51:40.172Z,11.27
2023-09-03T07:54:07.359Z,9.93
2023-09-03T07:56:35.099Z,10.10
2023-09-03T07:59:02.883Z,8.27
2023-09-03T08:01:31.493Z,9.07
2023-09-03T08:03:58.527Z,10.00
2023-09-03T08:06:27.930Z,9.38
2023-09-03T08:08:56.117Z,9.38
2023-09-03T08:11:23.163Z,10.20
2023-09-03T08:13:53.252Z,19.02
2023-09-03T08:16:20.734Z,12.38
2023-09-03T08:18:47.931Z,11.85
2023-09-03T08:21:16.074Z,15.02
2023-09-03T08:23:43.300Z,13.15
2023-09-03T08:26:10.095Z,14.27
2023-09-03T08:28:37.091Z,12.52
2023-09-03T08:31:03.788Z,13.50
2023-09-03T08:33:31.232Z,15.80
2023-09-03T08:35:57.934Z,14.23
2023-09-03T08:38:27.056Z,13.90
2023-09-03T08:40:54.228Z,13.35
2023-09-03T08:43:23.540Z,12.55
2023-09-03T08:46:00.705Z,14.23
2023-09-03T08:48:29.089Z,13.95
2023-09-03T08:50:57.013Z,13.15
2023-09-03T08:53:24.073Z,13.82
2023-09-03T08:55:52.178Z,12.77
2023-09-03T08:58:19.412Z,12.98
2023-09-03T09:00:46.683Z,13.40
2023-09-03T09:03:16.131Z,11.82
2023-09-03T09:05:46.828Z,12.43
2023-09-03T09:08:14.401Z,12.55
2023-09-03T09:10:44.677Z,11.40
2023-09-03T09:13:13.905Z,10.70
2023-09-03T09:15:44.045Z,10.40
2023-09-03T09:18:11.503Z,10.23
2023-09-03T09:20:40.674Z,11.98
2023-09-03T09:23:12.687Z,11.57
2023-09-03T09:25:44.268Z,11.73
2023-09-03T09:30:54.524Z,13.20
2023-09-03T09:33:23.459Z,10.88
2023-09-03T09:35:55.186Z,11.52
2023-09-03T09:38:35.887Z,9.77
2023-09-03T09:41:23.255Z,10.87
2023-09-03T09:43:51.242Z,9.80
2023-09-03T09:46:31.956Z,9.52
2023-09-03T09:49:01.288Z,10.50
2023-09-03T09:51:32.502Z,9.55
2023-09-03T09:54:01.191Z,9.70
2023-09-03T09:56:32.694Z,8.57
2023-09-03T09:58:59.924Z,9.00
2023-09-03T10:01:43.309Z,8.88
2023-09-03T10:04:10.929Z,9.23
2023-09-03T10:06:37.900Z,10.18
2023-09-03T10:09:04.959Z,9.40
2023-09-03T10:11:33.223Z,9.93
2023-09-03T10:14:02.248Z,9.75
2023-09-03T10:16:31.707Z,12.45
2023-09-03T10:19:04.719Z,9.13
2023-09-03T10:21:52.581Z,9.15
2023-09-03T10:24:21.956Z,8.50
2023-09-03T10:26:54.746Z,8.90
2023-09-03T10:29:23.655Z,8.73
2023-09-03T10:31:54.536Z,8.70
2023-09-03T10:34:22.040Z,10.25
2023-09-03T10:37:09.084Z,6.95
2023-09-03T10:39:38.572Z,8.25
2023-09-03T10:42:25.385Z,8.07
2023-09-03T10:44:55.044Z,9.15
2023-09-03T10:47:23.120Z,7.95
2023-09-03T10:49:55.011Z,6.93
2023-09-03T10:52:35.957Z,7.57
2023-09-03T10:55:21.456Z,6.45
2023-09-03T10:57:51.268Z,7.18
2023-09-03T11:00:25.585Z,6.70
2023-09-03T11:03:20.512Z,7.00
2023-09-03T11:06:19.995Z,6.95
2023-09-03T11:08:47.701Z,6.53
2023-09-03T11:11:24.674Z,5.68
2023-09-03T11:13:54.789Z,6.20
2023-09-03T11:16:35.664Z,5.35
2023-09-03T11:19:05.569Z,28.83
2023-09-03T11:21:32.401Z,8.60
2023-09-03T11:24:16.413Z,4.32
2023-09-03T11:26:46.397Z,4.63
2023-09-03T11:29:25.291Z,4.47
2023-09-03T11:31:54.114Z,7.53
2023-09-03T11:34:30.177Z,4.20
2023-09-03T11:36:58.217Z,4.30
2023-09-03T11:39:30.491Z,4.18
2023-09-03T11:41:57.490Z,5.97
2023-09-03T11:44:26.910Z,4.20
2023-09-03T11:46:59.152Z,5.07
2023-09-03T11:49:26.220Z,5.43
2023-09-03T11:51:55.070Z,4.30
2023-09-03T11:54:28.216Z,5.38
2023-09-03T11:56:58.761Z,4.20
2023-09-03T11:59:25.636Z,3.67
2023-09-03T12:01:54.015Z,4.35
2023-09-03T12:04:21.388Z,4.50
2023-09-03T12:06:50.464Z,3.83
2023-09-03T12:09:24.199Z,2.92
2023-09-03T12:11:53.340Z,3.03
2023-09-03T12:14:32.538Z,4.35
2023-09-03T12:16:59.520Z,2.95
2023-09-03T12:19:51.972Z,3.10
2023-09-03T12:22:21.253Z,2.50
2023-09-03T12:24:49.883Z,2.50
2023-09-03T12:27:21.487Z,3.22
2023-09-03T12:29:56.729Z,3.65
2023-09-03T12:32:40.249Z,6.97
2023-09-03T12:35:20.492Z,2.22
2023-09-03T12:37:50.006Z,2.03
2023-09-03T12:40:20.844Z,3.08
2023-09-03T12:42:47.875Z,2.13
2023-09-03T12:45:14.628Z,2.85
2023-09-03T12:47:44.371Z,3.67
2023-09-03T12:50:11.656Z,1.70
2023-09-03T12:52:39.225Z,2.22
2023-09-03T12:55:08.485Z,2.17
2023-09-03T12:57:36.390Z,2.15
2023-09-03T13:00:06.107Z,4.50
2023-09-03T13:02:33.207Z,4.15
2023-09-03T13:05:01.648Z,2.05
2023-09-03T13:07:29.279Z,3.05
2023-09-03T13:09:56.270Z,2.33
2023-09-03T13:12:23.447Z,2.15
2023-09-03T13:14:50.095Z,1.73
2023-09-03T13:17:21.472Z,1.88
2023-09-03T13:19:53.294Z,1.73
2023-09-03T13:22:22.866Z,2.72
2023-09-03T13:24:50.008Z,2.20
2023-09-03T13:27:16.802Z,1.92
2023-09-03T13:29:45.588Z,2.25
2023-09-03T13:32:12.756Z,1.73
2023-09-03T13:34:43.322Z,4.07
2023-09-03T13:37:10.019Z,1.92
2023-09-03T13:39:39.110Z,2.00
2023-09-03T13:42:06.656Z,1.80
2023-09-03T13:44:35.320Z,1.42
2023-09-03T13:47:03.863Z,2.53
2023-09-03T13:49:31.866Z,3.95
2023-09-03T13:51:58.545Z,3.00
2023-09-03T13:54:27.051Z,1.70
2023-09-03T13:56:54.693Z,2.40
2023-09-03T13:59:23.106Z,7.25
2023-09-03T14:01:50.279Z,2.58
2023-09-03T14:04:20.388Z,2.45
2023-09-03T14:06:47.847Z,1.92
2023-09-03T14:09:19.416Z,1.52
2023-09-03T14:11:46.569Z,2.75
2023-09-03T14:14:15.232Z,1.70
2023-09-03T14:16:42.435Z,3.00
2023-09-03T14:19:13.010Z,2.65
2023-09-03T14:21:39.680Z,1.88
2023-09-03T14:24:10.072Z,3.58
2023-09-03T14:26:36.752Z,2.92
2023-09-03T14:29:11.457Z,2.28
2023-09-03T14:31:41.601Z,1.50
2023-09-03T14:34:09.462Z,2.25
2023-09-03T14:36:36.862Z,2.03
2023-09-03T14:39:06.380Z,2.00
2023-09-03T14:41:33.337Z,3.42
2023-09-03T14:44:01.318Z,1.85
2023-09-03T14:46:29.297Z,2.72
2023-09-03T14:48:56.656Z,1.77
2023-09-03T14:51:25.164Z,2.00
2023-09-03T14:53:54.371Z,2.28
2023-09-03T14:56:25.255Z,2.90
2023-09-03T14:58:53.460Z,2.22
2023-09-03T15:01:24.454Z,2.28
2023-09-03T15:03:51.757Z,2.97
2023-09-03T15:06:21.580Z,2.28
2023-09-03T15:08:49.824Z,2.58
2023-09-03T15:11:17.408Z,2.60
2023-09-03T15:13:47.842Z,4.43
2023-09-03T15:16:16.876Z,2.95
2023-09-03T15:18:43.732Z,2.55
2023-09-03T15:21:11.035Z,2.70
2023-09-03T15:23:38.350Z,2.97
2023-09-03T15:26:06.678Z,2.63
2023-09-03T15:28:36.538Z,2.60
2023-09-03T15:31:04.184Z,3.33
2023-09-03T15:33:36.050Z,2.63
2023-09-03T15:36:06.125Z,3.97
2023-09-03T15:38:38.090Z,4.90
2023-09-03T15:41:05.649Z,2.25
2023-09-03T15:43:33.276Z,3.03
2023-09-03T15:46:01.096Z,3.20
2023-09-03T15:48:28.857Z,3.33
2023-09-03T15:50:56.923Z,3.08
2023-09-03T15:53:25.572Z,3.83
2023-09-03T15:55:55.684Z,2.40
2023-09-03T15:58:24.252Z,3.75
2023-09-03T16:00:52.637Z,9.27
2023-09-03T16:03:22.151Z,3.28
2023-09-03T16:05:49.508Z,2.75
2023-09-03T16:08:16.442Z,3.13
2023-09-03T16:10:45.242Z,4.35
2023-09-03T16:13:12.783Z,2.03
2023-09-03T16:15:47.284Z,2.58
2023-09-03T16:18:18.297Z,3.28
2023-09-03T16:20:48.245Z,2.72
2023-09-03T16:23:15.032Z,2.50
2023-09-03T16:25:41.726Z,2.55
2023-09-03T16:28:13.029Z,2.67
2023-09-03T16:30:40.742Z,2.53
2023-09-03T16:33:07.659Z,4.57
2023-09-03T16:35:36.921Z,3.67
2023-09-03T16:38:05.426Z,2.90
2023-09-03T16:40:35.310Z,2.72
2023-09-03T16:43:02.289Z,3.75
2023-09-03T16:45:32.316Z,3.20
2023-09-03T16:50:42.097Z,4.13
2023-09-03T16:53:08.820Z,2.92
2023-09-03T16:55:35.921Z,2.80
2023-09-03T16:58:03.641Z,2.42
2023-09-03T17:00:32.295Z,4.00
2023-09-03T17:03:00.603Z,2.33
2023-09-03T17:05:27.754Z,3.50
2023-09-03T17:08:00.211Z,3.00
2023-09-03T17:10:27.499Z,3.13
2023-09-03T17:12:55.287Z,3.78
2023-09-03T17:15:24.342Z,3.08
2023-09-03T17:17:52.171Z,3.08
2023-09-03T17:20:18.869Z,3.85
2023-09-03T17:22:50.386Z,2.75
2023-09-03T17:25:18.673Z,2.88
2023-09-03T17:27:45.951Z,3.40
2023-09-03T17:30:18.341Z,6.05
2023-09-03T17:32:46.484Z,3.88
2023-09-03T17:35:13.738Z,3.30
2023-09-03T17:37:40.399Z,4.20
2023-09-03T17:40:12.971Z,3.35
2023-09-03T17:42:41.131Z,3.38
2023-09-03T17:45:10.880Z,5.75
2023-09-03T17:47:41.378Z,5.35
2023-09-03T17:50:10.190Z,5.88
2023-09-03T17:52:37.215Z,6.25
2023-09-03T17:55:08.860Z,6.63
2023-09-03T17:57:35.952Z,8.23
2023-09-03T18:00:05.722Z,7.13
2023-09-03T18:02:33.505Z,3.33
2023-09-03T18:05:00.424Z,4.38
2023-09-03T18:07:27.942Z,3.25
2023-09-03T18:09:59.693Z,5.35
2023-09-03T18:12:27.708Z,3.08
2023-09-03T18:14:57.730Z,3.70
2023-09-03T18:17:25.668Z,3.13
2023-09-03T18:19:52.962Z,3.40
2023-09-03T18:22:20.053Z,5.00
2023-09-03T18:24:48.636Z,4.55
2023-09-03T18:27:15.536Z,5.10
2023-09-03T18:29:46.867Z,7.40
2023-09-03T18:32:15.085Z,4.45
2023-09-03T18:34:44.583Z,5.50
2023-09-03T18:37:12.039Z,3.65
2023-09-03T18:39:42.778Z,3.60
2023-09-03T18:42:09.744Z,5.15
2023-09-03T18:44:36.897Z,6.22
2023-09-03T18:47:03.986Z,6.97
2023-09-03T18:49:35.897Z,5.63
2023-09-03T18:52:05.774Z,6.50
2023-09-03T18:54:33.666Z,3.88
2023-09-03T18:57:00.558Z,4.97
2023-09-03T18:59:28.462Z,3.33
2023-09-03T19:01:55.666Z,6.50
2023-09-03T19:04:24.005Z,6.28
2023-09-03T19:06:52.799Z,4.63
2023-09-03T19:09:21.186Z,5.40
2023-09-03T19:11:48.193Z,4.22
2023-09-03T19:14:18.363Z,4.25
2023-09-03T19:16:45.578Z,5.90
2023-09-03T19:19:12.616Z,7.43
2023-09-03T19:21:40.378Z,5.05
2023-09-03T19:24:09.940Z,6.00
2023-09-03T19:26:41.440Z,20.33
2023-09-03T19:29:08.199Z,19.55
2023-09-03T19:31:35.233Z,8.45
2023-09-03T19:34:18.253Z,4.85
2023-09-03T19:36:50.448Z,13.00
2023-09-03T19:39:18.683Z,4.35
2023-09-03T19:41:46.285Z,3.65
2023-09-03T19:44:14.580Z,4.50
2023-09-03T19:46:43.632Z,7.25
2023-09-03T19:49:10.925Z,8.32
2023-09-03T19:51:37.642Z,12.90
2023-09-03T19:54:04.516Z,11.55
2023-09-03T19:56:31.777Z,8.20
2023-09-03T19:58:58.624Z,11.38
2023-09-03T20:01:28.741Z,7.32
2023-09-03T20:03:55.652Z,8.98
2023-09-03T20:06:24.136Z,7.68
2023-09-03T20:08:54.217Z,8.80
2023-09-03T20:11:21.635Z,6.93
2023-09-03T20:13:48.443Z,7.50
2023-09-03T20:16:15.197Z,10.48
2023-09-03T20:18:44.169Z,8.93
2023-09-03T20:21:13.527Z,7.88
2023-09-03T20:23:41.853Z,14.75
2023-09-03T20:26:08.946Z,19.90
2023-09-03T20:31:08.017Z,21.35
2023-09-03T20:33:38.550Z,12.35
2023-09-03T20:36:07.066Z,9.38
2023-09-03T20:38:33.873Z,5.30
2023-09-03T20:41:04.765Z,6.25
2023-09-03T20:43:31.913Z,6.47
2023-09-03T20:46:00.199Z,4.90
2023-09-03T20:48:32.064Z,7.43
2023-09-03T20:51:04.607Z,4.40
2023-09-03T20:57:32.373Z,5.13
2023-09-03T21:00:39.559Z,4.40
2023-09-03T21:03:06.423Z,4.65
2023-09-03T21:05:33.545Z,6.40
2023-09-03T21:08:03.083Z,7.15
2023-09-03T21:10:33.136Z,6.85
2023-09-03T21:13:01.136Z,10.95
2023-09-03T21:15:27.822Z,9.85
2023-09-03T21:17:58.742Z,7.72
2023-09-03T21:20:25.471Z,8.57
2023-09-03T21:22:57.999Z,6.55
2023-09-03T21:25:26.062Z,5.22
2023-09-03T21:27:55.397Z,5.93
2023-09-03T21:30:24.890Z,7.03
2023-09-03T21:32:52.842Z,5.80
2023-09-03T21:35:24.043Z,5.55
2023-09-03T21:37:54.937Z,8.30
2023-09-03T21:40:21.853Z,5.72
2023-09-03T21:42:51.894Z,6.57
2023-09-03T21:45:19.045Z,6.78
2023-09-03T21:47:47.779Z,4.95
2023-09-03T21:50:15.918Z,4.95
2023-09-03T21:52:44.140Z,4.70
2023-09-03T21:55:12.485Z,14.52
2023-09-03T21:57:39.758Z,9.75
2023-09-03T22:00:11.283Z,25.38
2023-09-03T22:02:47.632Z,27.65
2023-09-03T22:05:15.587Z,21.35
2023-09-03T22:07:42.795Z,51.28
2023-09-03T22:10:10.878Z,50.75
2023-09-03T22:12:37.657Z,72.25
2023-09-03T22:15:05.924Z,112.47
2023-09-03T22:17:33.841Z,76.72
2023-09-03T22:20:00.609Z,54.55
2023-09-03T22:22:28.013Z,43.08
2023-09-03T22:24:54.848Z,27.35
2023-09-03T22:27:25.215Z,24.88
2023-09-03T22:29:52.504Z,26.27
2023-09-03T22:32:19.156Z,16.70
2023-09-03T22:34:45.833Z,10.02
2023-09-03T22:37:14.571Z,13.70
2023-09-03T22:39:44.507Z,12.60
2023-09-03T22:42:12.049Z,12.43
2023-09-03T22:44:39.235Z,11.77
2023-09-03T22:47:07.780Z,8.05
2023-09-03T22:49:34.723Z,11.13
2023-09-03T22:52:01.425Z,8.98
2023-09-03T22:54:28.174Z,8.82
2023-09-03T22:56:54.922Z,6.75
2023-09-03T22:59:24.676Z,7.45
2023-09-03T23:01:51.498Z,7.38
2023-09-03T23:04:18.296Z,9.40
2023-09-03T23:06:45.400Z,13.45
2023-09-03T23:09:12.431Z,8.98
2023-09-03T23:11:41.869Z,7.28
2023-09-03T23:14:08.581Z,7.32
2023-09-03T23:16:35.605Z,6.07
2023-09-03T23:19:05.547Z,8.35
2023-09-03T23:21:32.297Z,7.22
2023-09-03T23:24:01.932Z,7.68
2023-09-03T23:26:32.123Z,8.48
2023-09-03T23:29:32.824Z,7.55
2023-09-03T23:32:00.184Z,9.52
2023-09-03T23:34:26.801Z,8.07
2023-09-03T23:36:53.460Z,9.70
2023-09-03T23:39:21.028Z,7.03
2023-09-03T23:41:47.755Z,8.20
2023-09-03T23:44:15.461Z,6.43
2023-09-03T23:46:42.136Z,6.13
2023-09-03T23:49:09.230Z,7.22
2023-09-03T23:51:35.872Z,8.40
2023-09-03T23:54:05.904Z,9.05
2023-09-03T23:56:32.674Z,9.25
2023-09-03T23:58:59.557Z,12.90
